Time;durP1;ratioP1;P1;durP2;ratioP2;P2;SDS_P1;SDS_P2;PMS_P1;PMS_P2;Temp;Humidity;BMP_temperature;BMP_pressure;BME280_temperature;BME280_humidity;BME280_pressure;Samples;Min_cycle;Max_cycle;Signal;HPM_P1;HPM_P2
2024/01/05 00:01:00;;;;;;;;;;;22.30;40.20;;;;;;5075287;28;19925;-48
2024/01/05 00:03:27;;;;;;;;;;;22.40;40.20;;;;;;5075612;28;20015;-48
2024/01/05 00:05:54;;;;;;;;;;;22.30;40.20;;;;;;5075247;28;19924;-48
2024/01/05 00:08:21;;;;;;;;;;;22.40;40.20;;;;;;5075017;28;19986;-47
2024/01/05 00:10:48;;;;;;;;;;;22.30;40.10;;;;;;5074741;28;20458;-56
2024/01/05 00:13:15;;;;;;;;;;;22.30;40.20;;;;;;5075012;28;20022;-54
2024/01/05 00:15:42;;;;;;;;;;;22.30;40.20;;;;;;5074776;28;19924;-51
2024/01/05 00:18:09;;;;;;;;;;;22.20;40.20;;;;;;5074971;28;19928;-52
2024/01/05 00:20:36;;;;;;;;;;;22.20;40.10;;;;;;5074882;28;19928;-53
2024/01/05 00:23:03;;;;;;;;;;;22.20;40.10;;;;;;5074911;28;19931;-52
2024/01/05 00:25:30;;;;;;;;;;;22.20;40.10;;;;;;5074984;28;19986;-53
2024/01/05 00:27:57;;;;;;;;;;;22.20;40.10;;;;;;5075159;28;19947;-51
2024/01/05 00:30:24;;;;;;;;;;;22.20;40.10;;;;;;5074492;28;19979;-51
2024/01/05 00:32:51;;;;;;;;;;;22.20;40.10;;;;;;5074841;28;19928;-53
2024/01/05 00:35:18;;;;;;;;;;;22.20;40.10;;;;;;5074360;28;19924;-53
2024/01/05 00:37:45;;;;;;;;;;;22.20;40.10;;;;;;5074960;28;19925;-52
2024/01/05 00:40:12;;;;;;;;;;;22.20;40.10;;;;;;5074424;28;20403;-47
2024/01/05 00:42:39;;;;;;;;;;;22.20;40.10;;;;;;5074116;28;19964;-48
2024/01/05 00:45:06;;;;;;;;;;;22.20;40.10;;;;;;5074487;28;19982;-52
2024/01/05 00:47:33;;;;;;;;;;;22.20;40.10;;;;;;5074426;28;20011;-48
2024/01/05 00:50:00;;;;;;;;;;;22.20;40.00;;;;;;5074518;28;19925;-51
2024/01/05 00:52:27;;;;;;;;;;;22.20;40.00;;;;;;5074372;28;20392;-51
2024/01/05 00:54:54;;;;;;;;;;;22.20;40.60;;;;;;5074114;28;19924;-52
2024/01/05 00:57:21;;;;;;;;;;;22.20;40.00;;;;;;5074496;28;20270;-52
2024/01/05 00:59:48;;;;;;;;;;;22.20;40.00;;;;;;5074072;28;19931;-48
2024/01/05 01:02:15;;;;;;;;;;;22.20;40.00;;;;;;5074078;28;20008;-54
2024/01/05 01:04:42;;;;;;;;;;;22.20;40.00;;;;;;5074459;28;19958;-48
2024/01/05 01:07:09;;;;;;;;;;;22.20;40.10;;;;;;5074110;28;19982;-50
2024/01/05 01:09:36;;;;;;;;;;;22.20;40.00;;;;;;5074361;28;20254;-48
2024/01/05 01:12:03;;;;;;;;;;;22.20;40.00;;;;;;5073945;28;19932;-47
2024/01/05 01:14:30;;;;;;;;;;;22.20;40.00;;;;;;5074086;28;19924;-50
2024/01/05 01:16:58;;;;;;;;;;;22.20;40.10;;;;;;5073390;28;19968;-52
2024/01/05 01:19:24;;;;;;;;;;;22.20;40.00;;;;;;5073733;28;19925;-48
2024/01/05 01:21:52;;;;;;;;;;;22.20;40.10;;;;;;5073672;28;20042;-48
2024/01/05 01:24:19;;;;;;;;;;;22.10;40.00;;;;;;5073798;28;20023;-47
2024/01/05 01:26:46;;;;;;;;;;;22.10;40.00;;;;;;5073904;28;19925;-48
2024/01/05 01:29:13;;;;;;;;;;;22.20;40.10;;;;;;5073542;28;19982;-50
2024/01/05 01:31:40;;;;;;;;;;;22.10;40.00;;;;;;5073573;28;19925;-47
2024/01/05 01:34:07;;;;;;;;;;;22.10;40.00;;;;;;5073909;28;20336;-51
2024/01/05 01:36:34;;;;;;;;;;;22.10;40.00;;;;;;5073762;28;20362;-48
2024/01/05 01:39:03;;;;;;;;;;;22.10;40.00;;;;;;5073424;28;19971;-51
2024/01/05 01:41:32;;;;;;;;;;;22.10;40.00;;;;;;5073554;28;20007;-48
2024/01/05 01:43:59;;;;;;;;;;;22.10;40.00;;;;;;5073841;28;19924;-50
2024/01/05 01:46:26;;;;;;;;;;;22.10;40.00;;;;;;5073734;28;20015;-49
2024/01/05 01:48:53;;;;;;;;;;;22.10;40.00;;;;;;5073307;28;19924;-50
2024/01/05 01:51:21;;;;;;;;;;;22.10;40.00;;;;;;5073698;28;19977;-47
2024/01/05 01:53:48;;;;;;;;;;;22.10;40.00;;;;;;5073331;28;20436;-49
2024/01/05 01:56:15;;;;;;;;;;;22.10;39.90;;;;;;5073075;28;19925;-49
2024/01/05 01:58:43;;;;;;;;;;;22.10;39.90;;;;;;5073471;28;19924;-52
2024/01/05 02:01:10;;;;;;;;;;;22.10;39.90;;;;;;5073023;28;19928;-54
2024/01/05 02:03:37;;;;;;;;;;;22.10;39.90;;;;;;5073179;28;20021;-54
2024/01/05 02:06:04;;;;;;;;;;;22.10;39.90;;;;;;5073577;28;19931;-53
2024/01/05 02:08:32;;;;;;;;;;;22.10;39.90;;;;;;5073281;28;20007;-53
2024/01/05 02:10:59;;;;;;;;;;;22.10;39.90;;;;;;5073038;28;19970;-53
2024/01/05 02:13:26;;;;;;;;;;;22.10;39.90;;;;;;5073231;28;19925;-55
2024/01/05 02:15:53;;;;;;;;;;;22.10;39.90;;;;;;5073408;28;19986;-53
2024/01/05 02:18:20;;;;;;;;;;;22.10;39.90;;;;;;5072964;28;19935;-51
2024/01/05 02:20:47;;;;;;;;;;;22.10;40.00;;;;;;5073272;28;19924;-53
2024/01/05 02:23:22;;;;;;;;;;;22.10;39.90;;;;;;5073274;28;20321;-49
2024/01/05 02:25:49;;;;;;;;;;;22.10;39.90;;;;;;5072959;28;20097;-51
2024/01/05 02:28:17;;;;;;;;;;;22.10;39.90;;;;;;5073280;28;19931;-53
2024/01/05 02:30:44;;;;;;;;;;;22.10;39.90;;;;;;5072642;28;20443;-47
2024/01/05 02:33:11;;;;;;;;;;;22.10;39.90;;;;;;5073351;28;20340;-53
2024/01/05 02:35:37;;;;;;;;;;;22.10;39.90;;;;;;5072888;28;20018;-54
2024/01/05 02:38:05;;;;;;;;;;;22.10;39.80;;;;;;5055550;28;20463;-50
2024/01/05 02:40:32;;;;;;;;;;;22.10;39.90;;;;;;5073123;28;19936;-50
2024/01/05 02:42:59;;;;;;;;;;;22.10;39.80;;;;;;5072819;28;20058;-53
2024/01/05 02:45:26;;;;;;;;;;;22.10;39.80;;;;;;5072619;28;19975;-49
2024/01/05 02:47:53;;;;;;;;;;;22.10;39.80;;;;;;5072984;28;19924;-48
2024/01/05 02:50:20;;;;;;;;;;;22.00;39.80;;;;;;5072787;28;19978;-47
2024/01/05 02:52:47;;;;;;;;;;;22.00;39.80;;;;;;5072763;28;20430;-53
2024/01/05 02:55:14;;;;;;;;;;;22.00;39.80;;;;;;5073063;28;20352;-48
2024/01/05 02:57:41;;;;;;;;;;;22.00;39.80;;;;;;5072878;28;20015;-48
2024/01/05 03:00:08;;;;;;;;;;;22.00;39.80;;;;;;5072448;28;19954;-49
2024/01/05 03:02:35;;;;;;;;;;;22.00;39.70;;;;;;5072726;28;20197;-47
2024/01/05 03:05:03;;;;;;;;;;;22.00;39.70;;;;;;5073186;28;20016;-49
2024/01/05 03:07:30;;;;;;;;;;;22.00;39.70;;;;;;5076300;28;19924;-48
2024/01/05 03:09:57;;;;;;;;;;;22.00;39.70;;;;;;5076526;28;19982;-49
2024/01/05 03:12:24;;;;;;;;;;;22.00;39.70;;;;;;5076531;28;20137;-48
2024/01/05 03:14:51;;;;;;;;;;;22.00;39.70;;;;;;5076386;28;19978;-49
2024/01/05 03:17:18;;;;;;;;;;;22.00;39.70;;;;;;5076356;28;19947;-52
2024/01/05 03:19:45;;;;;;;;;;;22.00;39.70;;;;;;5075912;28;20015;-52
2024/01/05 03:22:12;;;;;;;;;;;22.00;39.60;;;;;;5075675;28;19978;-49
2024/01/05 03:24:42;;;;;;;;;;;22.00;39.70;;;;;;5075357;28;21296;-48
2024/01/05 03:27:12;;;;;;;;;;;22.00;39.70;;;;;;5076043;28;20296;-50
2024/01/05 03:29:40;;;;;;;;;;;22.00;39.70;;;;;;5076040;28;19931;-51
2024/01/05 03:32:07;;;;;;;;;;;22.00;39.70;;;;;;5075794;28;19925;-49
2024/01/05 03:34:34;;;;;;;;;;;22.00;39.70;;;;;;5057927;28;19924;-48
2024/01/05 03:37:01;;;;;;;;;;;22.00;39.70;;;;;;5075866;28;19924;-50
2024/01/05 03:39:28;;;;;;;;;;;22.00;39.70;;;;;;5076012;28;19963;-48
2024/01/05 03:41:55;;;;;;;;;;;22.00;39.70;;;;;;5075545;28;20019;-53
2024/01/05 03:44:22;;;;;;;;;;;22.00;39.70;;;;;;5075589;28;19924;-52
2024/01/05 03:46:50;;;;;;;;;;;22.00;39.70;;;;;;5075557;28;19924;-55
2024/01/05 03:49:17;;;;;;;;;;;22.00;39.70;;;;;;5075779;28;19925;-55
2024/01/05 03:51:45;;;;;;;;;;;22.00;39.70;;;;;;5075662;28;20392;-55
2024/01/05 03:54:12;;;;;;;;;;;22.00;39.70;;;;;;5075543;28;20027;-54
2024/01/05 03:56:40;;;;;;;;;;;22.00;39.70;;;;;;5075339;28;19954;-54
2024/01/05 03:59:07;;;;;;;;;;;21.90;39.60;;;;;;5075367;28;20300;-53
2024/01/05 04:01:44;;;;;;;;;;;22.00;39.70;;;;;;5057462;28;19978;-52
2024/01/05 04:04:11;;;;;;;;;;;22.00;39.70;;;;;;5075153;28;19924;-50
2024/01/05 04:06:39;;;;;;;;;;;22.00;39.60;;;;;;5075569;28;19924;-52
2024/01/05 04:09:10;;;;;;;;;;;21.90;39.60;;;;;;5075360;28;19978;-54
2024/01/05 04:11:37;;;;;;;;;;;21.90;39.60;;;;;;5075040;28;19932;-53
2024/01/05 04:14:05;;;;;;;;;;;21.90;39.60;;;;;;5075512;28;19935;-51
2024/01/05 04:16:32;;;;;;;;;;;22.00;39.60;;;;;;5074048;28;19931;-54
2024/01/05 04:18:59;;;;;;;;;;;21.90;39.50;;;;;;5074613;28;19925;-48
2024/01/05 04:21:26;;;;;;;;;;;22.00;39.60;;;;;;5074752;28;19924;-47
2024/01/05 04:23:55;;;;;;;;;;;21.90;39.50;;;;;;5074899;28;20342;-54
2024/01/05 04:26:22;;;;;;;;;;;21.90;39.50;;;;;;5074841;28;19925;-47
2024/01/05 04:28:49;;;;;;;;;;;21.90;39.50;;;;;;5074868;28;20393;-48
2024/01/05 04:31:16;;;;;;;;;;;22.00;39.60;;;;;;5073990;28;19924;-49
2024/01/05 04:33:43;;;;;;;;;;;22.00;39.60;;;;;;5074886;28;19931;-48
2024/01/05 04:36:10;;;;;;;;;;;22.00;39.60;;;;;;5074618;28;19931;-49
2024/01/05 04:38:37;;;;;;;;;;;21.90;39.50;;;;;;5074450;28;20553;-48
2024/01/05 04:41:04;;;;;;;;;;;22.00;39.30;;;;;;5074448;28;20011;-48
2024/01/05 04:43:31;;;;;;;;;;;22.00;39.10;;;;;;5074484;28;19932;-48
2024/01/05 04:45:59;;;;;;;;;;;22.00;38.90;;;;;;5074432;28;20015;-48
2024/01/05 04:48:26;;;;;;;;;;;22.00;38.80;;;;;;5074352;28;19924;-54
2024/01/05 04:50:53;;;;;;;;;;;22.00;38.60;;;;;;5074312;28;19937;-48
2024/01/05 04:53:20;;;;;;;;;;;22.00;38.30;;;;;;5074265;28;20373;-48
2024/01/05 04:55:47;;;;;;;;;;;22.00;38.10;;;;;;5074437;28;19954;-47
2024/01/05 04:58:14;;;;;;;;;;;22.00;38.10;;;;;;5074464;28;19928;-52
2024/01/05 05:00:41;;;;;;;;;;;21.90;38.00;;;;;;5056238;28;20007;-47
2024/01/05 05:03:09;;;;;;;;;;;21.90;38.00;;;;;;5074158;28;20294;-49
2024/01/05 05:05:37;;;;;;;;;;;21.90;37.90;;;;;;5073276;28;19924;-48
2024/01/05 05:08:04;;;;;;;;;;;21.90;37.80;;;;;;5073932;28;19928;-47
2024/01/05 05:10:31;;;;;;;;;;;21.90;37.70;;;;;;5073949;28;19925;-48
2024/01/05 05:12:58;;;;;;;;;;;22.00;37.70;;;;;;5073815;28;19932;-48
2024/01/05 05:15:25;;;;;;;;;;;22.00;37.50;;;;;;5073892;28;19924;-53
2024/01/05 05:17:53;;;;;;;;;;;22.00;37.40;;;;;;5073617;28;20035;-50
2024/01/05 05:20:20;;;;;;;;;;;22.00;37.30;;;;;;5073277;28;19930;-51
2024/01/05 05:22:47;;;;;;;;;;;22.00;37.30;;;;;;5073833;28;19928;-47
2024/01/05 05:25:14;;;;;;;;;;;22.00;37.20;;;;;;5073755;28;20278;-51
2024/01/05 05:27:41;;;;;;;;;;;22.00;37.10;;;;;;5073767;28;19979;-53
2024/01/05 05:30:09;;;;;;;;;;;22.00;37.10;;;;;;5073624;28;19970;-54
2024/01/05 05:32:36;;;;;;;;;;;22.10;37.10;;;;;;5073711;28;19978;-55
2024/01/05 05:35:03;;;;;;;;;;;22.10;37.10;;;;;;5073438;28;19935;-54
2024/01/05 05:37:30;;;;;;;;;;;22.10;37.00;;;;;;5073608;28;19978;-52
2024/01/05 05:39:57;;;;;;;;;;;22.10;37.00;;;;;;5073215;28;19924;-52
2024/01/05 05:42:24;;;;;;;;;;;22.10;37.00;;;;;;5073264;28;19928;-53
2024/01/05 05:44:51;;;;;;;;;;;22.10;37.00;;;;;;5072951;28;19924;-53
2024/01/05 05:47:18;;;;;;;;;;;22.10;36.90;;;;;;5073033;28;19931;-50
2024/01/05 05:49:45;;;;;;;;;;;22.10;36.80;;;;;;5073543;28;19936;-53
2024/01/05 05:52:12;;;;;;;;;;;22.10;36.80;;;;;;5073183;28;19932;-52
2024/01/05 05:54:39;;;;;;;;;;;22.10;36.80;;;;;;5073699;28;19925;-51
2024/01/05 05:57:07;;;;;;;;;;;22.10;36.80;;;;;;5073107;28;20407;-53
2024/01/05 05:59:35;;;;;;;;;;;22.10;36.70;;;;;;5072621;28;20437;-50
2024/01/05 06:02:02;;;;;;;;;;;22.10;36.70;;;;;;5053036;28;19967;-48
2024/01/05 06:04:29;;;;;;;;;;;22.10;36.60;;;;;;5053194;28;20016;-50
2024/01/05 06:06:57;;;;;;;;;;;22.20;36.60;;;;;;5065590;28;20218;-54
2024/01/05 06:09:24;;;;;;;;;;;22.10;36.50;;;;;;5071731;28;19928;-51
2024/01/05 06:11:51;;;;;;;;;;;22.10;36.50;;;;;;5070848;28;19928;-51
2024/01/05 06:14:18;;;;;;;;;;;22.10;36.50;;;;;;5066532;28;19972;-50
2024/01/05 06:16:45;;;;;;;;;;;22.10;36.50;;;;;;5067960;28;19929;-51
2024/01/05 06:19:12;;;;;;;;;;;22.20;36.50;;;;;;5070406;28;20731;-52
2024/01/05 06:21:39;;;;;;;;;;;22.20;36.50;;;;;;5066813;28;19933;-53
2024/01/05 06:24:06;;;;;;;;;;;22.20;36.50;;;;;;5070822;28;19932;-53
2024/01/05 06:26:34;;;;;;;;;;;22.20;36.40;;;;;;5069999;28;20388;-48
2024/01/05 06:29:01;;;;;;;;;;;22.20;36.40;;;;;;5069583;28;19924;-53
2024/01/05 06:31:28;;;;;;;;;;;22.20;36.40;;;;;;5064477;28;19974;-54
2024/01/05 06:33:55;;;;;;;;;;;22.10;36.30;;;;;;5066597;28;19952;-53
2024/01/05 06:36:28;;;;;;;;;;;22.10;36.60;;;;;;5069564;28;19928;-50
2024/01/05 06:38:55;;;;;;;;;;;22.20;36.90;;;;;;5061779;28;20027;-51
2024/01/05 06:41:22;;;;;;;;;;;22.20;36.90;;;;;;5074903;28;19942;-57
2024/01/05 06:43:49;;;;;;;;;;;22.20;36.90;;;;;;5077149;28;19969;-55
2024/01/05 06:46:16;;;;;;;;;;;22.20;36.90;;;;;;5071014;28;19976;-57
2024/01/05 06:48:43;;;;;;;;;;;22.20;37.00;;;;;;5073977;28;20403;-53
2024/01/05 06:51:10;;;;;;;;;;;22.30;37.00;;;;;;5065590;28;19932;-54
2024/01/05 06:53:37;;;;;;;;;;;22.30;37.10;;;;;;5071490;28;20381;-52
2024/01/05 06:56:05;;;;;;;;;;;22.30;37.00;;;;;;5066693;28;19925;-56
2024/01/05 06:58:34;;;;;;;;;;;22.30;37.00;;;;;;5067164;28;20358;-52
2024/01/05 07:01:01;;;;;;;;;;;22.40;36.90;;;;;;5067748;28;19960;-53
2024/01/05 07:03:28;;;;;;;;;;;22.40;36.70;;;;;;5067590;28;20023;-56
2024/01/05 07:05:55;;;;;;;;;;;22.40;36.70;;;;;;5069143;28;20024;-58
2024/01/05 07:08:22;;;;;;;;;;;22.40;36.60;;;;;;5068517;28;19925;-57
2024/01/05 07:10:49;;;;;;;;;;;22.40;36.60;;;;;;5069047;28;20396;-56
2024/01/05 07:13:16;;;;;;;;;;;22.40;36.60;;;;;;5062748;28;19928;-57
2024/01/05 07:15:44;;;;;;;;;;;22.40;36.60;;;;;;5066039;28;19930;-57
2024/01/05 07:18:11;;;;;;;;;;;22.50;36.60;;;;;;5064662;28;19924;-57
2024/01/05 07:20:38;;;;;;;;;;;22.50;36.70;;;;;;5071608;28;20016;-59
2024/01/05 07:23:05;;;;;;;;;;;22.50;36.80;;;;;;5070922;28;19981;-59
2024/01/05 07:25:32;;;;;;;;;;;22.50;36.80;;;;;;5068633;28;19932;-58
2024/01/05 07:28:01;;;;;;;;;;;22.50;36.70;;;;;;5066926;28;20282;-58
2024/01/05 07:30:28;;;;;;;;;;;22.50;36.80;;;;;;5068128;28;20282;-58
2024/01/05 07:32:55;;;;;;;;;;;22.60;37.00;;;;;;5066872;28;19951;-57
2024/01/05 07:35:22;;;;;;;;;;;22.50;37.00;;;;;;5064654;28;19983;-58
2024/01/05 07:37:50;;;;;;;;;;;22.50;37.10;;;;;;5067676;28;19933;-58
2024/01/05 07:40:17;;;;;;;;;;;22.60;37.00;;;;;;5067962;28;20408;-55
2024/01/05 07:42:43;;;;;;;;;;;22.60;37.00;;;;;;5069666;28;20328;-57
2024/01/05 07:45:10;;;;;;;;;;;22.60;37.00;;;;;;5062651;28;20385;-58
2024/01/05 07:47:37;;;;;;;;;;;22.60;36.90;;;;;;5066558;28;20023;-57
2024/01/05 07:50:05;;;;;;;;;;;22.60;36.80;;;;;;5063154;28;19960;-56
2024/01/05 07:52:31;;;;;;;;;;;22.60;36.70;;;;;;5066269;28;19933;-58
2024/01/05 07:54:59;;;;;;;;;;;22.70;36.70;;;;;;5067180;28;21224;-58
2024/01/05 07:57:26;;;;;;;;;;;22.70;36.70;;;;;;5067501;28;19932;-58
2024/01/05 07:59:53;;;;;;;;;;;22.70;36.60;;;;;;5070363;28;19928;-55
2024/01/05 08:02:20;;;;;;;;;;;22.70;36.60;;;;;;5065830;28;19933;-54
2024/01/05 08:04:47;;;;;;;;;;;22.70;36.60;;;;;;5071282;28;19928;-54
2024/01/05 08:07:14;;;;;;;;;;;22.80;36.60;;;;;;5070847;28;20015;-52
2024/01/05 08:09:42;;;;;;;;;;;22.70;36.50;;;;;;5066621;28;20806;-51
2024/01/05 08:12:09;;;;;;;;;;;22.80;36.50;;;;;;5070986;28;19931;-55
2024/01/05 08:14:37;;;;;;;;;;;22.80;36.60;;;;;;5068399;28;19978;-53
2024/01/05 08:17:04;;;;;;;;;;;22.80;36.60;;;;;;5068743;28;19932;-53
2024/01/05 08:19:31;;;;;;;;;;;22.80;36.70;;;;;;5066698;28;20027;-51
2024/01/05 08:21:58;;;;;;;;;;;22.80;36.70;;;;;;5067243;28;19928;-55
2024/01/05 08:24:26;;;;;;;;;;;22.90;36.70;;;;;;5067126;28;19932;-53
2024/01/05 08:26:54;;;;;;;;;;;22.90;36.70;;;;;;5054115;28;20027;-49
2024/01/05 08:29:24;;;;;;;;;;;22.90;36.70;;;;;;5053440;28;19946;-52
2024/01/05 08:31:51;;;;;;;;;;;22.90;36.80;;;;;;5065618;28;19947;-56
2024/01/05 08:34:18;;;;;;;;;;;22.90;37.30;;;;;;5051096;28;19932;-55
2024/01/05 08:36:46;;;;;;;;;;;23.00;36.70;;;;;;5068881;28;20381;-55
2024/01/05 08:39:13;;;;;;;;;;;23.00;36.60;;;;;;5064098;28;19929;-53
2024/01/05 08:41:42;;;;;;;;;;;23.00;36.60;;;;;;5065868;28;20008;-56
2024/01/05 08:44:09;;;;;;;;;;;23.00;36.60;;;;;;5066765;28;20266;-54
2024/01/05 08:46:36;;;;;;;;;;;23.00;36.60;;;;;;5066253;28;20034;-54
2024/01/05 08:49:04;;;;;;;;;;;23.10;36.70;;;;;;5064645;28;20096;-49
2024/01/05 08:51:31;;;;;;;;;;;23.10;36.70;;;;;;5065468;28;20043;-56
2024/01/05 08:54:01;;;;;;;;;;;23.10;36.90;;;;;;5047932;28;19942;-54
2024/01/05 08:56:29;;;;;;;;;;;23.10;36.80;;;;;;5068412;28;19932;-55
2024/01/05 08:58:56;;;;;;;;;;;23.10;36.70;;;;;;5065796;28;19924;-54
2024/01/05 09:01:23;;;;;;;;;;;23.10;36.50;;;;;;5062517;28;19935;-55
2024/01/05 09:03:50;;;;;;;;;;;23.20;36.40;;;;;;5064904;28;19928;-53
2024/01/05 09:06:17;;;;;;;;;;;23.20;36.30;;;;;;5063639;28;19933;-54
2024/01/05 09:08:44;;;;;;;;;;;23.20;36.20;;;;;;5070578;28;19967;-55
2024/01/05 09:11:11;;;;;;;;;;;23.20;36.30;;;;;;5064100;28;20033;-58
2024/01/05 09:13:39;;;;;;;;;;;23.20;36.80;;;;;;5063081;28;19932;-57
2024/01/05 09:16:06;;;;;;;;;;;23.30;36.30;;;;;;5051574;28;19948;-57
2024/01/05 09:18:33;;;;;;;;;;;23.30;36.20;;;;;;5067350;28;19939;-55
2024/01/05 09:21:02;;;;;;;;;;;23.30;36.20;;;;;;5068167;28;19924;-55
2024/01/05 09:23:29;;;;;;;;;;;23.30;36.10;;;;;;5066611;28;19967;-59
2024/01/05 09:25:56;;;;;;;;;;;23.40;36.00;;;;;;5060707;28;19943;-54
2024/01/05 09:28:23;;;;;;;;;;;23.40;36.00;;;;;;5046453;28;19941;-57
2024/01/05 09:30:50;;;;;;;;;;;23.40;36.00;;;;;;5062231;28;20019;-53
2024/01/05 09:33:21;;;;;;;;;;;23.40;36.10;;;;;;5070246;28;19924;-58
2024/01/05 09:35:48;;;;;;;;;;;23.50;36.20;;;;;;5066228;28;20015;-58
2024/01/05 09:38:15;;;;;;;;;;;23.50;36.20;;;;;;5064516;28;19943;-53
2024/01/05 09:40:42;;;;;;;;;;;23.50;36.30;;;;;;5068485;28;19940;-57
2024/01/05 09:43:10;;;;;;;;;;;23.60;36.20;;;;;;5068930;28;19930;-56
2024/01/05 09:45:38;;;;;;;;;;;23.60;36.50;;;;;;5062223;28;19939;-58
2024/01/05 09:48:05;;;;;;;;;;;23.70;36.80;;;;;;5061910;28;19928;-55
2024/01/05 09:50:33;;;;;;;;;;;23.70;36.60;;;;;;5065334;28;20083;-57
2024/01/05 09:53:00;;;;;;;;;;;23.80;36.70;;;;;;5070038;28;19939;-53
2024/01/05 09:55:27;;;;;;;;;;;23.80;37.10;;;;;;5061524;28;19998;-52
2024/01/05 09:57:54;;;;;;;;;;;23.90;36.90;;;;;;5064493;28;20573;-54
2024/01/05 10:00:23;;;;;;;;;;;23.90;36.90;;;;;;5062400;28;20031;-52
2024/01/05 10:02:55;;;;;;;;;;;24.00;37.00;;;;;;5065756;28;19937;-55
2024/01/05 10:05:22;;;;;;;;;;;24.10;36.70;;;;;;5050369;28;19928;-57
2024/01/05 10:07:49;;;;;;;;;;;24.10;36.60;;;;;;5064616;28;19924;-55
2024/01/05 10:10:16;;;;;;;;;;;24.20;36.50;;;;;;5063434;28;19964;-55
2024/01/05 10:12:43;;;;;;;;;;;24.20;36.50;;;;;;5069751;28;20293;-53
2024/01/05 10:15:12;;;;;;;;;;;24.30;36.40;;;;;;5063310;28;19928;-55
2024/01/05 10:17:41;;;;;;;;;;;24.40;36.40;;;;;;5073817;28;19947;-55
2024/01/05 10:20:14;;;;;;;;;;;24.40;36.30;;;;;;5074361;28;20284;-54
2024/01/05 10:22:42;;;;;;;;;;;24.40;36.40;;;;;;5069039;28;19959;-55
2024/01/05 10:25:21;;;;;;;;;;;24.50;36.50;;;;;;5069443;28;20463;-55
2024/01/05 10:27:49;;;;;;;;;;;24.50;35.90;;;;;;5068050;28;20009;-52
2024/01/05 10:30:24;;;;;;;;;;;24.50;35.70;;;;;;5070135;28;20007;-52
2024/01/05 10:33:03;;;;;;;;;;;24.50;35.30;;;;;;5071614;28;19925;-56
2024/01/05 10:35:30;;;;;;;;;;;24.60;35.10;;;;;;5069999;28;20300;-53
2024/01/05 10:38:05;;;;;;;;;;;24.60;34.90;;;;;;5070163;28;19985;-55
2024/01/05 10:40:32;;;;;;;;;;;24.70;34.80;;;;;;5070055;28;20358;-54
2024/01/05 10:43:09;;;;;;;;;;;24.70;34.80;;;;;;5072882;28;19990;-51
2024/01/05 10:45:37;;;;;;;;;;;24.60;34.70;;;;;;5073898;28;19925;-55
2024/01/05 10:48:05;;;;;;;;;;;24.70;34.70;;;;;;5069701;28;19939;-55
2024/01/05 10:50:34;;;;;;;;;;;24.60;34.50;;;;;;5067888;28;20439;-55
2024/01/05 10:53:02;;;;;;;;;;;24.60;34.60;;;;;;5069151;28;20011;-55
2024/01/05 10:55:31;;;;;;;;;;;24.60;34.60;;;;;;5067479;28;19932;-52
2024/01/05 10:57:58;;;;;;;;;;;24.60;34.50;;;;;;5070976;28;19932;-54
2024/01/05 11:00:25;;;;;;;;;;;24.60;34.40;;;;;;5069429;28;19932;-54
2024/01/05 11:02:54;;;;;;;;;;;24.70;34.40;;;;;;5065961;28;20416;-54
2024/01/05 11:05:21;;;;;;;;;;;24.70;34.40;;;;;;5048086;28;19935;-52
2024/01/05 11:07:49;;;;;;;;;;;24.70;34.50;;;;;;5055680;28;19954;-55
2024/01/05 11:10:27;;;;;;;;;;;24.70;34.40;;;;;;5069046;28;19932;-52
2024/01/05 11:13:14;;;;;;;;;;;24.70;34.50;;;;;;5031763;28;20517;-56
2024/01/05 11:16:02;;;;;;;;;;;24.70;34.40;;;;;;5073104;28;19939;-58
2024/01/05 11:18:48;;;;;;;;;;;24.70;34.30;;;;;;5069105;28;19929;-55
2024/01/05 11:21:33;;;;;;;;;;;24.70;34.20;;;;;;5057178;28;20377;-53
2024/01/05 11:24:00;;;;;;;;;;;24.70;34.50;;;;;;5069369;28;19924;-58
2024/01/05 11:26:32;;;;;;;;;;;24.80;34.50;;;;;;5068309;28;19932;-57
2024/01/05 11:28:59;;;;;;;;;;;24.80;34.40;;;;;;5067458;28;19939;-56
2024/01/05 11:31:46;;;;;;;;;;;24.80;34.90;;;;;;5071822;28;19986;-58
2024/01/05 11:34:31;;;;;;;;;;;24.70;35.20;;;;;;5071823;28;20370;-58
2024/01/05 11:36:58;;;;;;;;;;;24.70;35.30;;;;;;5070966;28;19925;-56
2024/01/05 11:39:45;;;;;;;;;;;24.70;35.10;;;;;;5069515;28;19924;-58
2024/01/05 11:42:30;;;;;;;;;;;24.70;34.80;;;;;;5068135;28;19939;-57
2024/01/05 11:45:01;;;;;;;;;;;24.70;34.70;;;;;;5065489;28;20009;-56
2024/01/05 11:47:40;;;;;;;;;;;24.70;34.70;;;;;;5069066;28;19932;-56
2024/01/05 11:50:27;;;;;;;;;;;24.70;34.90;;;;;;5064628;28;19932;-58
2024/01/05 11:53:14;;;;;;;;;;;24.70;35.10;;;;;;5069021;28;19928;-57
2024/01/05 11:55:46;;;;;;;;;;;24.80;35.10;;;;;;5069278;28;19924;-53
2024/01/05 11:58:17;;;;;;;;;;;24.80;35.20;;;;;;5069813;28;19924;-54
2024/01/05 12:00:46;;;;;;;;;;;24.80;35.40;;;;;;5068356;28;19978;-50
2024/01/05 12:03:14;;;;;;;;;;;24.80;35.40;;;;;;5067923;28;19975;-53
2024/01/05 12:05:41;;;;;;;;;;;24.90;35.30;;;;;;5072830;28;19947;-59
2024/01/05 12:08:10;;;;;;;;;;;24.90;35.20;;;;;;5068577;28;19939;-55
2024/01/05 12:10:38;;;;;;;;;;;24.90;35.00;;;;;;5063480;28;19928;-54
2024/01/05 12:13:06;;;;;;;;;;;24.90;35.00;;;;;;5069489;28;19987;-57
2024/01/05 12:15:33;;;;;;;;;;;25.00;35.00;;;;;;5065778;28;19935;-56
2024/01/05 12:18:01;;;;;;;;;;;25.00;34.90;;;;;;5067452;28;19932;-56
2024/01/05 12:20:29;;;;;;;;;;;25.00;34.60;;;;;;5070014;28;20447;-55
2024/01/05 12:22:56;;;;;;;;;;;25.10;34.50;;;;;;5066901;28;20369;-62
2024/01/05 12:25:24;;;;;;;;;;;25.10;34.30;;;;;;5052708;28;20924;-53
2024/01/05 12:27:51;;;;;;;;;;;25.10;34.10;;;;;;5069914;28;19932;-60
2024/01/05 12:30:18;;;;;;;;;;;25.10;34.00;;;;;;5067523;28;20556;-56
2024/01/05 12:32:47;;;;;;;;;;;25.10;33.90;;;;;;5071733;28;19924;-61
2024/01/05 12:35:14;;;;;;;;;;;25.20;33.90;;;;;;5068993;28;19928;-63
2024/01/05 12:37:55;;;;;;;;;;;25.20;34.00;;;;;;5067603;28;19935;-58
2024/01/05 12:40:26;;;;;;;;;;;25.30;34.20;;;;;;5066583;28;19932;-54
2024/01/05 12:42:54;;;;;;;;;;;25.30;34.20;;;;;;5071342;28;19925;-55
2024/01/05 12:45:24;;;;;;;;;;;25.30;34.30;;;;;;5072444;28;19939;-62
2024/01/05 12:47:52;;;;;;;;;;;25.30;34.40;;;;;;5075488;28;19932;-54
2024/01/05 12:50:23;;;;;;;;;;;25.40;34.40;;;;;;5066268;28;19924;-58
2024/01/05 12:52:50;;;;;;;;;;;25.30;34.20;;;;;;5066787;28;19931;-59
2024/01/05 12:55:32;;;;;;;;;;;25.30;34.20;;;;;;5055210;28;19935;-60
2024/01/05 12:58:03;;;;;;;;;;;25.30;34.20;;;;;;5072907;28;19978;-58
2024/01/05 13:00:31;;;;;;;;;;;25.30;34.20;;;;;;5066747;28;19943;-58
2024/01/05 13:02:58;;;;;;;;;;;25.30;33.90;;;;;;5069994;28;19932;-58
2024/01/05 13:05:26;;;;;;;;;;;25.30;33.90;;;;;;5070136;28;19955;-62
2024/01/05 13:07:54;;;;;;;;;;;25.30;33.80;;;;;;5067900;28;19932;-56
2024/01/05 13:10:21;;;;;;;;;;;25.30;33.70;;;;;;5068610;28;19931;-55
2024/01/05 13:12:48;;;;;;;;;;;25.30;33.70;;;;;;5076261;28;19932;-56
2024/01/05 13:15:15;;;;;;;;;;;25.30;33.70;;;;;;5076211;28;20023;-56
2024/01/05 13:17:44;;;;;;;;;;;25.30;33.70;;;;;;5070652;28;19924;-57
2024/01/05 13:20:10;;;;;;;;;;;25.30;33.80;;;;;;5070761;28;19978;-56
2024/01/05 13:22:37;;;;;;;;;;;25.30;33.70;;;;;;5072618;28;19928;-56
2024/01/05 13:25:05;;;;;;;;;;;25.30;33.50;;;;;;5073207;28;19978;-55
2024/01/05 13:27:32;;;;;;;;;;;25.40;33.40;;;;;;5073184;28;20036;-55
2024/01/05 13:29:59;;;;;;;;;;;25.40;33.50;;;;;;5071550;28;19930;-56
2024/01/05 13:32:31;;;;;;;;;;;25.40;33.50;;;;;;5071417;28;19925;-56
2024/01/05 13:34:58;;;;;;;;;;;25.40;33.40;;;;;;5069320;28;20444;-55
2024/01/05 13:37:25;;;;;;;;;;;25.40;33.40;;;;;;5071252;28;20292;-52
2024/01/05 13:39:52;;;;;;;;;;;25.40;33.50;;;;;;5069366;28;20320;-58
2024/01/05 13:42:20;;;;;;;;;;;25.40;33.60;;;;;;5072451;28;20274;-56
2024/01/05 13:44:46;;;;;;;;;;;25.40;33.60;;;;;;5072272;28;19928;-55
2024/01/05 13:47:13;;;;;;;;;;;25.30;33.50;;;;;;5071981;28;20362;-53
2024/01/05 13:49:40;;;;;;;;;;;25.30;33.50;;;;;;5070423;28;19925;-54
2024/01/05 13:52:07;;;;;;;;;;;25.30;33.50;;;;;;5072792;28;19928;-55
2024/01/05 13:54:35;;;;;;;;;;;25.30;33.60;;;;;;5072758;28;20020;-54
2024/01/05 13:57:02;;;;;;;;;;;25.30;33.60;;;;;;5072856;28;19970;-53
2024/01/05 13:59:30;;;;;;;;;;;25.30;33.70;;;;;;5072003;28;19928;-53
2024/01/05 14:01:57;;;;;;;;;;;25.20;33.70;;;;;;5072842;28;19924;-54
2024/01/05 14:04:24;;;;;;;;;;;25.20;33.80;;;;;;5072081;28;20050;-54
2024/01/05 14:06:51;;;;;;;;;;;25.20;33.90;;;;;;5072414;28;19924;-55
2024/01/05 14:09:18;;;;;;;;;;;25.10;34.00;;;;;;5053997;28;20424;-50
2024/01/05 14:11:45;;;;;;;;;;;25.10;34.10;;;;;;5072211;28;19924;-54
2024/01/05 14:14:12;;;;;;;;;;;25.10;34.20;;;;;;5072292;28;19983;-55
2024/01/05 14:16:42;;;;;;;;;;;25.10;34.20;;;;;;5072186;28;19928;-56
2024/01/05 14:19:09;;;;;;;;;;;25.10;34.30;;;;;;5073009;28;19925;-56
2024/01/05 14:21:36;;;;;;;;;;;25.00;34.20;;;;;;5072678;28;19985;-57